LIC0015 LEXJ-LIME
Flight info
| Callsign | LIC0015 |
|---|---|
| Flight time | 1h 45m |
| Altitude | 38000 |
| Route | VADOX N864 DELOG DCT BEBIX DCT LUSAR Z64 MOLUS N871 TELNO Z119 SOSON N850 ODINA |
| Aircraft | A320/M-SDE3FGHIRWY/LB1 |
Departure
| Time | 2026-04-26 09:57 |
|---|---|
| Airport | Seve Ballesteros-Santander Airport (LEXJ) |
Arrival
| Time | 2026-04-26 11:42 |
|---|---|
| Airport | Il Caravaggio International Airport (LIME) |
| Time | Latitude | Longitude | Altitude | Speed | Heading |
|---|---|---|---|---|---|
| 2026-04-26 09:36 | 43.42397 | -3.82374 | 22 ft | 0 kts | 240° |
| 2026-04-26 09:42 | 43.42406 | -3.82359 | 21 ft | 4 kts | 182° |
| 2026-04-26 09:42 | 43.42432 | -3.82360 | 22 ft | 4 kts | 176° |
| 2026-04-26 09:42 | 43.42459 | -3.82360 | 20 ft | 4 kts | 192° |
| 2026-04-26 09:43 | 43.42474 | -3.82354 | 20 ft | 0 kts | 202° |
| 2026-04-26 09:48 | 43.42435 | -3.82380 | 23 ft | 3 kts | 222° |
| 2026-04-26 09:48 | 43.42442 | -3.82405 | 20 ft | 2 kts | 327° |
| 2026-04-26 09:48 | 43.42470 | -3.82367 | 20 ft | 12 kts | 65° |
| 2026-04-26 09:48 | 43.42477 | -3.82244 | 20 ft | 13 kts | 89° |
| 2026-04-26 09:49 | 43.42483 | -3.82115 | 20 ft | 14 kts | 73° |
| 2026-04-26 09:49 | 43.42500 | -3.82072 | 20 ft | 0 kts | 61° |
| 2026-04-26 09:53 | 43.42520 | -3.82016 | 23 ft | 10 kts | 74° |
| 2026-04-26 09:53 | 43.42513 | -3.81932 | 20 ft | 8 kts | 103° |
| 2026-04-26 09:54 | 43.42500 | -3.81860 | 21 ft | 7 kts | 103° |
| 2026-04-26 09:54 | 43.42487 | -3.81798 | 23 ft | 8 kts | 111° |
| 2026-04-26 09:54 | 43.42449 | -3.81662 | 20 ft | 17 kts | 111° |
| 2026-04-26 09:54 | 43.42406 | -3.81507 | 21 ft | 15 kts | 110° |
| 2026-04-26 09:55 | 43.42389 | -3.81371 | 23 ft | 15 kts | 65° |
| 2026-04-26 09:55 | 43.42415 | -3.81336 | 21 ft | 0 kts | 33° |
| 2026-04-26 09:55 | 43.42431 | -3.81323 | 21 ft | 6 kts | 31° |
| 2026-04-26 09:56 | 43.42478 | -3.81294 | 23 ft | 9 kts | 8° |
| 2026-04-26 09:56 | 43.42549 | -3.81413 | 25 ft | 44 kts | 292° |
| 2026-04-26 09:56 | 43.42746 | -3.82156 | 18 ft | 117 kts | 290° |
| 2026-04-26 09:56 | 43.43090 | -3.83444 | 134 ft | 160 kts | 290° |
| 2026-04-26 09:57 | 43.43492 | -3.84911 | 826 ft | 164 kts | 292° |
| 2026-04-26 09:57 | 43.43897 | -3.86367 | 1642 ft | 162 kts | 291° |
| 2026-04-26 09:57 | 43.44313 | -3.87865 | 2217 ft | 177 kts | 290° |
| 2026-04-26 09:57 | 43.44947 | -3.89426 | 2570 ft | 200 kts | 315° |
| 2026-04-26 09:58 | 43.46228 | -3.90370 | 2954 ft | 224 kts | 351° |
| 2026-04-26 09:58 | 43.47858 | -3.90570 | 3467 ft | 247 kts | 357° |
| 2026-04-26 09:58 | 43.49643 | -3.90725 | 4133 ft | 264 kts | 357° |
| 2026-04-26 09:58 | 43.51493 | -3.90881 | 5084 ft | 268 kts | 357° |
| 2026-04-26 09:59 | 43.53366 | -3.91043 | 6049 ft | 271 kts | 357° |
| 2026-04-26 09:59 | 43.55262 | -3.91216 | 6975 ft | 275 kts | 356° |
| 2026-04-26 09:59 | 43.57184 | -3.91398 | 7857 ft | 279 kts | 356° |
| 2026-04-26 09:59 | 43.59122 | -3.91585 | 8709 ft | 284 kts | 356° |
| 2026-04-26 10:00 | 43.61108 | -3.91777 | 9591 ft | 288 kts | 356° |
| 2026-04-26 10:00 | 43.62993 | -3.91959 | 10389 ft | 293 kts | 356° |
| 2026-04-26 10:00 | 43.65102 | -3.92164 | 10739 ft | 315 kts | 356° |
| 2026-04-26 10:00 | 43.67377 | -3.92385 | 11058 ft | 337 kts | 356° |
| 2026-04-26 10:01 | 43.69743 | -3.92614 | 11688 ft | 345 kts | 355° |
| 2026-04-26 10:01 | 43.72156 | -3.92846 | 12433 ft | 350 kts | 355° |
| 2026-04-26 10:01 | 43.74607 | -3.93084 | 13173 ft | 355 kts | 355° |
| 2026-04-26 10:01 | 43.77052 | -3.93320 | 13916 ft | 359 kts | 355° |
| 2026-04-26 10:02 | 43.79592 | -3.93562 | 14585 ft | 363 kts | 355° |
| 2026-04-26 10:02 | 43.82094 | -3.93802 | 15228 ft | 367 kts | 355° |
| 2026-04-26 10:02 | 43.84685 | -3.94052 | 15909 ft | 370 kts | 355° |
| 2026-04-26 10:02 | 43.87266 | -3.94302 | 16571 ft | 374 kts | 355° |
| 2026-04-26 10:03 | 43.89874 | -3.94555 | 17217 ft | 378 kts | 356° |
| 2026-04-26 10:03 | 43.92515 | -3.94810 | 17876 ft | 381 kts | 356° |
| 2026-04-26 10:03 | 43.95169 | -3.95065 | 18504 ft | 385 kts | 356° |
| 2026-04-26 10:03 | 43.97853 | -3.95323 | 19052 ft | 388 kts | 356° |
| 2026-04-26 10:04 | 44.00556 | -3.95585 | 19613 ft | 391 kts | 356° |
| 2026-04-26 10:04 | 44.03290 | -3.95851 | 20154 ft | 394 kts | 356° |
| 2026-04-26 10:04 | 44.06038 | -3.96118 | 20687 ft | 397 kts | 356° |
| 2026-04-26 10:04 | 44.08807 | -3.96391 | 21214 ft | 401 kts | 355° |
| 2026-04-26 10:05 | 44.11602 | -3.96668 | 21730 ft | 404 kts | 355° |
| 2026-04-26 10:05 | 44.14415 | -3.96947 | 22247 ft | 407 kts | 355° |
| 2026-04-26 10:05 | 44.17252 | -3.97224 | 22744 ft | 411 kts | 355° |
| 2026-04-26 10:05 | 44.20118 | -3.97500 | 23221 ft | 414 kts | 355° |
| 2026-04-26 10:06 | 44.23003 | -3.97780 | 23705 ft | 418 kts | 355° |
| 2026-04-26 10:06 | 44.25918 | -3.97905 | 24111 ft | 421 kts | 4° |
| 2026-04-26 10:06 | 44.28805 | -3.97168 | 24512 ft | 424 kts | 17° |
| 2026-04-26 10:06 | 44.31509 | -3.95509 | 24913 ft | 426 kts | 31° |
| 2026-04-26 10:07 | 44.33870 | -3.93005 | 25310 ft | 428 kts | 45° |
| 2026-04-26 10:07 | 44.35753 | -3.89780 | 25696 ft | 430 kts | 58° |
| 2026-04-26 10:07 | 44.37117 | -3.86051 | 26051 ft | 433 kts | 66° |
| 2026-04-26 10:07 | 44.38382 | -3.82215 | 26435 ft | 435 kts | 65° |
| 2026-04-26 10:08 | 44.39649 | -3.78371 | 26830 ft | 437 kts | 65° |
| 2026-04-26 10:08 | 44.40931 | -3.74493 | 27222 ft | 439 kts | 65° |
| 2026-04-26 10:08 | 44.42219 | -3.70605 | 27597 ft | 441 kts | 65° |
| 2026-04-26 10:08 | 44.43515 | -3.66689 | 27966 ft | 444 kts | 65° |
| 2026-04-26 10:09 | 44.44802 | -3.62797 | 28329 ft | 446 kts | 65° |
| 2026-04-26 10:09 | 44.45682 | -3.60126 | 28578 ft | 448 kts | 65° |
| 2026-04-26 10:09 | 44.47408 | -3.54860 | 29058 ft | 451 kts | 65° |
| 2026-04-26 10:09 | 44.48718 | -3.50847 | 29395 ft | 453 kts | 65° |
| 2026-04-26 10:10 | 44.50034 | -3.46819 | 29727 ft | 455 kts | 65° |
| 2026-04-26 10:10 | 44.51357 | -3.42768 | 30050 ft | 458 kts | 65° |
| 2026-04-26 10:10 | 44.52684 | -3.38702 | 30394 ft | 459 kts | 65° |
| 2026-04-26 10:10 | 44.54010 | -3.34638 | 30683 ft | 460 kts | 65° |
| 2026-04-26 10:11 | 44.55341 | -3.30550 | 30966 ft | 462 kts | 65° |
| 2026-04-26 10:11 | 44.56675 | -3.26442 | 31236 ft | 463 kts | 65° |
| 2026-04-26 10:11 | 44.58010 | -3.22325 | 31555 ft | 464 kts | 65° |
| 2026-04-26 10:11 | 44.59346 | -3.18202 | 31902 ft | 463 kts | 65° |
| 2026-04-26 10:12 | 44.60679 | -3.14075 | 32273 ft | 463 kts | 65° |
| 2026-04-26 10:12 | 44.62005 | -3.09959 | 32644 ft | 462 kts | 65° |
| 2026-04-26 10:12 | 44.63325 | -3.05855 | 33019 ft | 461 kts | 65° |
| 2026-04-26 10:12 | 44.64639 | -3.01760 | 33416 ft | 459 kts | 65° |
| 2026-04-26 10:13 | 44.65951 | -2.97675 | 33835 ft | 457 kts | 64° |
| 2026-04-26 10:13 | 44.66818 | -2.94983 | 34087 ft | 456 kts | 64° |
| 2026-04-26 10:13 | 44.68122 | -2.90933 | 34430 ft | 456 kts | 64° |
| 2026-04-26 10:13 | 44.69428 | -2.86860 | 34745 ft | 455 kts | 64° |
| 2026-04-26 10:14 | 44.70722 | -2.82807 | 35024 ft | 455 kts | 64° |
| 2026-04-26 10:14 | 44.72018 | -2.78747 | 35331 ft | 454 kts | 64° |
| 2026-04-26 10:14 | 44.73309 | -2.74690 | 35608 ft | 454 kts | 65° |
| 2026-04-26 10:14 | 44.74596 | -2.70634 | 35882 ft | 454 kts | 65° |
| 2026-04-26 10:15 | 44.75879 | -2.66580 | 36147 ft | 454 kts | 64° |
| 2026-04-26 10:15 | 44.77164 | -2.62514 | 36446 ft | 453 kts | 64° |
| 2026-04-26 10:15 | 44.78445 | -2.58463 | 36724 ft | 452 kts | 64° |
| 2026-04-26 10:15 | 44.79718 | -2.54425 | 36978 ft | 451 kts | 65° |
| 2026-04-26 10:16 | 44.80991 | -2.50379 | 37225 ft | 451 kts | 65° |
| 2026-04-26 10:16 | 44.82262 | -2.46338 | 37456 ft | 451 kts | 65° |
| 2026-04-26 10:16 | 44.83534 | -2.42299 | 37697 ft | 451 kts | 65° |
| 2026-04-26 10:16 | 44.84805 | -2.38259 | 37919 ft | 451 kts | 65° |
| 2026-04-26 10:17 | 44.86075 | -2.34220 | 38146 ft | 451 kts | 65° |
| 2026-04-26 10:17 | 44.87342 | -2.30175 | 38217 ft | 451 kts | 65° |
| 2026-04-26 10:17 | 44.89862 | -2.22081 | 38226 ft | 449 kts | 65° |
| 2026-04-26 10:18 | 44.92370 | -2.14001 | 38225 ft | 449 kts | 65° |
| 2026-04-26 10:18 | 44.94858 | -2.05993 | 38227 ft | 449 kts | 65° |
| 2026-04-26 10:19 | 44.97365 | -1.97910 | 38223 ft | 449 kts | 65° |
| 2026-04-26 10:19 | 44.99857 | -1.89824 | 38227 ft | 449 kts | 64° |
| 2026-04-26 10:20 | 45.02344 | -1.81723 | 38229 ft | 449 kts | 65° |
| 2026-04-26 10:20 | 45.04820 | -1.73614 | 38231 ft | 449 kts | 65° |
| 2026-04-26 10:21 | 45.07292 | -1.65507 | 38231 ft | 449 kts | 65° |
| 2026-04-26 10:21 | 45.09761 | -1.57394 | 38231 ft | 449 kts | 65° |
| 2026-04-26 10:22 | 45.12231 | -1.49274 | 38234 ft | 448 kts | 64° |
| 2026-04-26 10:22 | 45.14685 | -1.41160 | 38234 ft | 448 kts | 65° |
| 2026-04-26 10:23 | 45.17131 | -1.33037 | 38232 ft | 448 kts | 65° |
| 2026-04-26 10:23 | 45.19570 | -1.24912 | 38229 ft | 448 kts | 65° |
| 2026-04-26 10:24 | 45.22008 | -1.16774 | 38224 ft | 448 kts | 65° |
| 2026-04-26 10:24 | 45.24440 | -1.08632 | 38227 ft | 448 kts | 64° |
| 2026-04-26 10:25 | 45.26868 | -1.00485 | 38222 ft | 448 kts | 65° |
| 2026-04-26 10:25 | 45.29282 | -0.92335 | 38224 ft | 448 kts | 65° |
| 2026-04-26 10:26 | 45.31692 | -0.84169 | 38227 ft | 448 kts | 65° |
| 2026-04-26 10:26 | 45.34097 | -0.76009 | 38233 ft | 447 kts | 65° |
| 2026-04-26 10:27 | 45.36497 | -0.67846 | 38233 ft | 447 kts | 65° |
| 2026-04-26 10:27 | 45.38887 | -0.59685 | 38241 ft | 446 kts | 65° |
| 2026-04-26 10:28 | 45.41272 | -0.51524 | 38239 ft | 446 kts | 65° |
| 2026-04-26 10:28 | 45.43653 | -0.43357 | 38235 ft | 446 kts | 65° |
| 2026-04-26 10:29 | 45.46018 | -0.35178 | 38231 ft | 446 kts | 65° |
| 2026-04-26 10:29 | 45.48360 | -0.27053 | 38233 ft | 446 kts | 65° |
| 2026-04-26 10:30 | 45.50715 | -0.18864 | 38228 ft | 446 kts | 65° |
| 2026-04-26 10:30 | 45.53078 | -0.10610 | 38230 ft | 446 kts | 65° |
| 2026-04-26 10:31 | 45.55411 | -0.02462 | 38233 ft | 446 kts | 65° |
| 2026-04-26 10:31 | 45.57757 | 0.05746 | 38253 ft | 446 kts | 65° |
| 2026-04-26 10:32 | 45.60091 | 0.13946 | 38252 ft | 446 kts | 65° |
| 2026-04-26 10:32 | 45.62413 | 0.22160 | 38248 ft | 446 kts | 65° |
| 2026-04-26 10:33 | 45.64734 | 0.30397 | 38244 ft | 446 kts | 65° |
| 2026-04-26 10:33 | 45.67059 | 0.38635 | 38238 ft | 446 kts | 65° |
| 2026-04-26 10:34 | 45.69372 | 0.46865 | 38243 ft | 446 kts | 65° |
| 2026-04-26 10:34 | 45.71670 | 0.55106 | 38234 ft | 445 kts | 65° |
| 2026-04-26 10:35 | 45.73957 | 0.63352 | 38231 ft | 445 kts | 65° |
| 2026-04-26 10:35 | 45.76243 | 0.71600 | 38231 ft | 445 kts | 65° |
| 2026-04-26 10:36 | 45.78529 | 0.79855 | 38235 ft | 445 kts | 65° |
| 2026-04-26 10:36 | 45.80796 | 0.88072 | 38231 ft | 445 kts | 65° |
| 2026-04-26 10:37 | 45.83067 | 0.96333 | 38230 ft | 446 kts | 65° |
| 2026-04-26 10:37 | 45.85332 | 1.04613 | 38229 ft | 445 kts | 65° |
| 2026-04-26 10:38 | 45.87588 | 1.12891 | 38229 ft | 445 kts | 66° |
| 2026-04-26 10:38 | 45.89840 | 1.21179 | 38240 ft | 446 kts | 66° |
| 2026-04-26 10:39 | 45.92090 | 1.29471 | 38232 ft | 445 kts | 66° |
| 2026-04-26 10:39 | 45.94327 | 1.37769 | 38228 ft | 445 kts | 66° |
| 2026-04-26 10:40 | 45.96364 | 1.46194 | 38228 ft | 446 kts | 70° |
| 2026-04-26 10:40 | 45.98109 | 1.54773 | 38220 ft | 447 kts | 71° |
| 2026-04-26 10:41 | 45.99808 | 1.63398 | 38227 ft | 447 kts | 71° |
| 2026-04-26 10:41 | 46.01556 | 1.71985 | 38225 ft | 447 kts | 71° |
| 2026-04-26 10:42 | 46.03027 | 1.79111 | 38223 ft | 446 kts | 71° |
| 2026-04-26 10:42 | 46.05093 | 1.89123 | 38218 ft | 446 kts | 71° |
| 2026-04-26 10:43 | 46.06851 | 1.97705 | 38214 ft | 446 kts | 71° |
| 2026-04-26 10:43 | 46.08601 | 2.06299 | 38218 ft | 447 kts | 71° |
| 2026-04-26 10:44 | 46.10338 | 2.14901 | 38214 ft | 447 kts | 71° |
| 2026-04-26 10:44 | 46.12072 | 2.23501 | 38213 ft | 447 kts | 71° |
| 2026-04-26 10:45 | 46.13788 | 2.32074 | 38214 ft | 447 kts | 71° |
| 2026-04-26 10:45 | 46.15507 | 2.40679 | 38225 ft | 447 kts | 71° |
| 2026-04-26 10:46 | 46.17221 | 2.49305 | 38215 ft | 447 kts | 71° |
| 2026-04-26 10:46 | 46.18925 | 2.57935 | 38216 ft | 447 kts | 72° |
| 2026-04-26 10:47 | 46.20350 | 2.65173 | 38209 ft | 447 kts | 72° |
| 2026-04-26 10:47 | 46.22049 | 2.73822 | 38214 ft | 448 kts | 72° |
| 2026-04-26 10:48 | 46.23743 | 2.82474 | 38219 ft | 448 kts | 72° |
| 2026-04-26 10:48 | 46.25428 | 2.91146 | 38199 ft | 448 kts | 72° |
| 2026-04-26 10:49 | 46.27111 | 2.99833 | 38205 ft | 449 kts | 72° |
| 2026-04-26 10:49 | 46.28793 | 3.08531 | 38209 ft | 449 kts | 72° |
| 2026-04-26 10:50 | 46.30465 | 3.17228 | 38207 ft | 449 kts | 72° |
| 2026-04-26 10:50 | 46.32125 | 3.25939 | 38208 ft | 449 kts | 73° |
| 2026-04-26 10:51 | 46.34605 | 3.38994 | 38207 ft | 450 kts | 73° |
| 2026-04-26 10:52 | 46.36259 | 3.47743 | 38206 ft | 451 kts | 73° |
| 2026-04-26 10:52 | 46.37904 | 3.56505 | 38206 ft | 451 kts | 73° |
| 2026-04-26 10:53 | 46.39556 | 3.65329 | 38206 ft | 451 kts | 73° |
| 2026-04-26 10:53 | 46.41179 | 3.74051 | 38205 ft | 451 kts | 73° |
| 2026-04-26 10:54 | 46.43617 | 3.87250 | 38216 ft | 451 kts | 73° |
| 2026-04-26 10:54 | 46.45236 | 3.96040 | 38218 ft | 451 kts | 73° |
| 2026-04-26 10:55 | 46.46853 | 4.04836 | 38196 ft | 451 kts | 73° |
| 2026-04-26 10:55 | 46.48459 | 4.13650 | 38201 ft | 452 kts | 74° |
| 2026-04-26 10:56 | 46.50057 | 4.22492 | 38210 ft | 452 kts | 73° |
| 2026-04-26 10:56 | 46.51656 | 4.31336 | 38205 ft | 453 kts | 73° |
| 2026-04-26 10:57 | 46.53253 | 4.40180 | 38194 ft | 453 kts | 73° |
| 2026-04-26 10:57 | 46.54844 | 4.49036 | 38192 ft | 453 kts | 74° |
| 2026-04-26 10:58 | 46.56419 | 4.57916 | 38183 ft | 454 kts | 74° |
| 2026-04-26 10:58 | 46.57990 | 4.66802 | 38183 ft | 454 kts | 74° |
| 2026-04-26 10:59 | 46.59560 | 4.75701 | 38185 ft | 454 kts | 74° |
| 2026-04-26 10:59 | 46.61111 | 4.84567 | 38185 ft | 454 kts | 74° |
| 2026-04-26 11:00 | 46.62664 | 4.93479 | 38172 ft | 455 kts | 75° |
| 2026-04-26 11:00 | 46.64224 | 5.02463 | 38170 ft | 455 kts | 75° |
| 2026-04-26 11:01 | 46.65751 | 5.11344 | 38172 ft | 455 kts | 76° |
| 2026-04-26 11:01 | 46.66291 | 5.20572 | 38169 ft | 457 kts | 95° |
| 2026-04-26 11:02 | 46.65132 | 5.29593 | 38169 ft | 457 kts | 102° |
| 2026-04-26 11:02 | 46.63749 | 5.38683 | 38163 ft | 457 kts | 102° |
| 2026-04-26 11:03 | 46.62385 | 5.47668 | 38164 ft | 458 kts | 102° |
| 2026-04-26 11:03 | 46.60993 | 5.56717 | 38166 ft | 458 kts | 103° |
| 2026-04-26 11:04 | 46.59577 | 5.65757 | 38166 ft | 458 kts | 103° |
| 2026-04-26 11:04 | 46.58142 | 5.74787 | 38167 ft | 458 kts | 103° |
| 2026-04-26 11:05 | 46.56702 | 5.83812 | 38168 ft | 459 kts | 103° |
| 2026-04-26 11:05 | 46.55279 | 5.92846 | 38168 ft | 459 kts | 103° |
| 2026-04-26 11:06 | 46.54077 | 6.00410 | 38170 ft | 459 kts | 103° |
| 2026-04-26 11:06 | 46.52379 | 6.10961 | 38167 ft | 459 kts | 103° |
| 2026-04-26 11:07 | 46.50914 | 6.19989 | 38169 ft | 459 kts | 103° |
| 2026-04-26 11:07 | 46.49452 | 6.29023 | 38169 ft | 460 kts | 103° |
| 2026-04-26 11:08 | 46.47982 | 6.38058 | 38174 ft | 460 kts | 104° |
| 2026-04-26 11:08 | 46.46537 | 6.47096 | 38175 ft | 460 kts | 102° |
| 2026-04-26 11:09 | 46.45477 | 6.56254 | 38176 ft | 460 kts | 97° |
| 2026-04-26 11:09 | 46.45364 | 6.60887 | 38177 ft | 460 kts | 85° |
| 2026-04-26 11:09 | 46.45810 | 6.65478 | 38178 ft | 459 kts | 76° |
| 2026-04-26 11:10 | 46.48084 | 6.74072 | 38175 ft | 457 kts | 58° |
| 2026-04-26 11:10 | 46.51890 | 6.81416 | 38172 ft | 455 kts | 49° |
| 2026-04-26 11:11 | 46.55880 | 6.88572 | 38173 ft | 456 kts | 49° |
| 2026-04-26 11:11 | 46.59871 | 6.95744 | 38172 ft | 457 kts | 49° |
| 2026-04-26 11:12 | 46.63875 | 7.02932 | 38177 ft | 457 kts | 49° |
| 2026-04-26 11:12 | 46.67871 | 7.10138 | 38178 ft | 457 kts | 49° |
| 2026-04-26 11:13 | 46.71859 | 7.17364 | 38177 ft | 458 kts | 50° |
| 2026-04-26 11:13 | 46.74984 | 7.25435 | 38167 ft | 460 kts | 70° |
| 2026-04-26 11:14 | 46.75787 | 7.29947 | 38166 ft | 461 kts | 81° |
| 2026-04-26 11:14 | 46.76055 | 7.34608 | 38165 ft | 461 kts | 91° |
| 2026-04-26 11:14 | 46.75384 | 7.42293 | 38155 ft | 460 kts | 101° |
| 2026-04-26 11:15 | 46.74077 | 7.53062 | 38166 ft | 461 kts | 100° |
| 2026-04-26 11:15 | 46.72960 | 7.62278 | 38163 ft | 462 kts | 100° |
| 2026-04-26 11:16 | 46.71836 | 7.71489 | 38163 ft | 463 kts | 101° |
| 2026-04-26 11:16 | 46.70695 | 7.80727 | 38174 ft | 463 kts | 101° |
| 2026-04-26 11:17 | 46.69549 | 7.89964 | 38176 ft | 463 kts | 101° |
| 2026-04-26 11:17 | 46.68385 | 7.99192 | 38180 ft | 463 kts | 101° |
| 2026-04-26 11:18 | 46.67224 | 8.08409 | 38183 ft | 463 kts | 101° |
| 2026-04-26 11:18 | 46.66257 | 8.16073 | 38183 ft | 463 kts | 101° |
| 2026-04-26 11:19 | 46.65090 | 8.25289 | 38182 ft | 463 kts | 101° |
| 2026-04-26 11:19 | 46.63905 | 8.34525 | 38183 ft | 463 kts | 101° |
| 2026-04-26 11:20 | 46.62709 | 8.43739 | 38175 ft | 463 kts | 102° |
| 2026-04-26 11:20 | 46.61802 | 8.48224 | 38164 ft | 461 kts | 115° |
| 2026-04-26 11:20 | 46.60257 | 8.52293 | 37997 ft | 459 kts | 128° |
| 2026-04-26 11:21 | 46.58155 | 8.55741 | 37386 ft | 454 kts | 141° |
| 2026-04-26 11:21 | 46.55603 | 8.58372 | 36615 ft | 450 kts | 154° |
| 2026-04-26 11:21 | 46.52727 | 8.60130 | 35760 ft | 448 kts | 167° |
| 2026-04-26 11:21 | 46.49668 | 8.60987 | 34843 ft | 448 kts | 178° |
| 2026-04-26 11:22 | 46.46558 | 8.61425 | 33939 ft | 451 kts | 178° |
| 2026-04-26 11:22 | 46.43421 | 8.61864 | 32802 ft | 456 kts | 178° |
| 2026-04-26 11:22 | 46.40273 | 8.62306 | 32170 ft | 451 kts | 177° |
| 2026-04-26 11:22 | 46.37168 | 8.62750 | 31547 ft | 445 kts | 177° |
| 2026-04-26 11:23 | 46.34102 | 8.63187 | 30907 ft | 442 kts | 177° |
| 2026-04-26 11:23 | 46.31055 | 8.63613 | 30271 ft | 438 kts | 177° |
| 2026-04-26 11:23 | 46.28027 | 8.64034 | 29583 ft | 435 kts | 177° |
| 2026-04-26 11:23 | 46.25040 | 8.64458 | 28993 ft | 429 kts | 177° |
| 2026-04-26 11:24 | 46.22081 | 8.64876 | 28384 ft | 425 kts | 177° |
| 2026-04-26 11:24 | 46.19152 | 8.65287 | 27792 ft | 420 kts | 177° |
| 2026-04-26 11:24 | 46.16257 | 8.65766 | 27204 ft | 418 kts | 171° |
| 2026-04-26 11:24 | 46.13473 | 8.66937 | 26613 ft | 417 kts | 159° |
| 2026-04-26 11:25 | 46.10923 | 8.68925 | 26056 ft | 416 kts | 147° |
| 2026-04-26 11:25 | 46.08732 | 8.71634 | 25488 ft | 415 kts | 134° |
| 2026-04-26 11:25 | 46.06991 | 8.74928 | 24941 ft | 414 kts | 122° |
| 2026-04-26 11:25 | 46.05536 | 8.78490 | 24415 ft | 410 kts | 121° |
| 2026-04-26 11:26 | 46.04094 | 8.82017 | 23894 ft | 407 kts | 121° |
| 2026-04-26 11:26 | 46.02659 | 8.85506 | 23354 ft | 403 kts | 121° |
| 2026-04-26 11:26 | 46.01234 | 8.88956 | 22853 ft | 398 kts | 122° |
| 2026-04-26 11:26 | 45.99824 | 8.92360 | 22363 ft | 393 kts | 121° |
| 2026-04-26 11:27 | 45.98432 | 8.95722 | 21899 ft | 389 kts | 121° |
| 2026-04-26 11:27 | 45.97054 | 8.99056 | 21402 ft | 387 kts | 121° |
| 2026-04-26 11:27 | 45.95682 | 9.02368 | 20913 ft | 384 kts | 121° |
| 2026-04-26 11:27 | 45.94319 | 9.05655 | 20411 ft | 382 kts | 121° |
| 2026-04-26 11:28 | 45.92961 | 9.08928 | 19911 ft | 381 kts | 121° |
| 2026-04-26 11:28 | 45.91607 | 9.12192 | 19394 ft | 380 kts | 121° |
| 2026-04-26 11:28 | 45.90250 | 9.15454 | 18870 ft | 380 kts | 121° |
| 2026-04-26 11:28 | 45.88890 | 9.18714 | 18346 ft | 380 kts | 121° |
| 2026-04-26 11:29 | 45.87529 | 9.21969 | 17784 ft | 379 kts | 121° |
| 2026-04-26 11:29 | 45.86177 | 9.25203 | 17273 ft | 377 kts | 121° |
| 2026-04-26 11:29 | 45.84835 | 9.28419 | 16848 ft | 373 kts | 121° |
| 2026-04-26 11:29 | 45.83524 | 9.31557 | 16725 ft | 360 kts | 121° |
| 2026-04-26 11:30 | 45.82258 | 9.34584 | 16598 ft | 348 kts | 121° |
| 2026-04-26 11:30 | 45.81423 | 9.36583 | 16513 ft | 341 kts | 121° |
| 2026-04-26 11:30 | 45.79833 | 9.40381 | 16172 ft | 334 kts | 121° |
| 2026-04-26 11:30 | 45.78640 | 9.43221 | 15847 ft | 331 kts | 121° |
| 2026-04-26 11:31 | 45.77449 | 9.46049 | 15522 ft | 328 kts | 121° |
| 2026-04-26 11:31 | 45.76281 | 9.48820 | 15237 ft | 325 kts | 121° |
| 2026-04-26 11:31 | 45.75117 | 9.51583 | 14907 ft | 323 kts | 121° |
| 2026-04-26 11:31 | 45.73964 | 9.54324 | 14584 ft | 320 kts | 121° |
| 2026-04-26 11:32 | 45.72817 | 9.57045 | 14256 ft | 318 kts | 121° |
| 2026-04-26 11:32 | 45.71675 | 9.59750 | 13953 ft | 316 kts | 121° |
| 2026-04-26 11:32 | 45.70540 | 9.62429 | 13616 ft | 313 kts | 121° |
| 2026-04-26 11:32 | 45.69410 | 9.65087 | 13240 ft | 311 kts | 121° |
| 2026-04-26 11:33 | 45.68286 | 9.67731 | 12878 ft | 309 kts | 121° |
| 2026-04-26 11:33 | 45.67147 | 9.70330 | 12516 ft | 307 kts | 126° |
| 2026-04-26 11:33 | 45.65706 | 9.72562 | 12150 ft | 305 kts | 137° |
| 2026-04-26 11:33 | 45.64152 | 9.74623 | 11798 ft | 304 kts | 137° |
| 2026-04-26 11:34 | 45.62608 | 9.76670 | 11431 ft | 302 kts | 137° |
| 2026-04-26 11:34 | 45.61071 | 9.78706 | 11082 ft | 300 kts | 137° |
| 2026-04-26 11:34 | 45.59528 | 9.80748 | 10461 ft | 307 kts | 137° |
| 2026-04-26 11:34 | 45.57926 | 9.82869 | 9631 ft | 320 kts | 137° |
| 2026-04-26 11:35 | 45.56270 | 9.85076 | 8737 ft | 330 kts | 135° |
| 2026-04-26 11:35 | 45.54957 | 9.87768 | 7951 ft | 334 kts | 112° |
| 2026-04-26 11:35 | 45.54284 | 9.90946 | 7265 ft | 336 kts | 104° |
| 2026-04-26 11:35 | 45.53897 | 9.93061 | 6889 ft | 327 kts | 103° |
| 2026-04-26 11:36 | 45.53980 | 9.97165 | 6127 ft | 305 kts | 69° |
| 2026-04-26 11:36 | 45.55234 | 9.99507 | 5583 ft | 294 kts | 36° |
| 2026-04-26 11:36 | 45.57060 | 10.00631 | 5153 ft | 282 kts | 15° |
| 2026-04-26 11:36 | 45.58958 | 10.01015 | 4786 ft | 267 kts | 358° |
| 2026-04-26 11:37 | 45.60598 | 10.00170 | 4713 ft | 244 kts | 322° |
| 2026-04-26 11:37 | 45.61590 | 9.98327 | 4463 ft | 232 kts | 291° |
| 2026-04-26 11:37 | 45.62058 | 9.96118 | 4077 ft | 233 kts | 283° |
| 2026-04-26 11:37 | 45.62450 | 9.93887 | 3760 ft | 228 kts | 283° |
| 2026-04-26 11:38 | 45.62850 | 9.91720 | 3466 ft | 223 kts | 283° |
| 2026-04-26 11:38 | 45.63247 | 9.89606 | 3179 ft | 218 kts | 284° |
| 2026-04-26 11:38 | 45.63635 | 9.87540 | 2891 ft | 213 kts | 283° |
| 2026-04-26 11:38 | 45.64011 | 9.85544 | 2646 ft | 201 kts | 284° |
| 2026-04-26 11:39 | 45.64362 | 9.83673 | 2359 ft | 188 kts | 283° |
| 2026-04-26 11:39 | 45.64687 | 9.81944 | 2130 ft | 171 kts | 283° |
| 2026-04-26 11:39 | 45.64984 | 9.80357 | 1930 ft | 157 kts | 282° |
| 2026-04-26 11:39 | 45.65256 | 9.78901 | 1716 ft | 147 kts | 284° |
| 2026-04-26 11:40 | 45.65514 | 9.77519 | 1524 ft | 142 kts | 283° |
| 2026-04-26 11:40 | 45.65765 | 9.76170 | 1348 ft | 140 kts | 283° |
| 2026-04-26 11:40 | 45.66015 | 9.74829 | 1154 ft | 139 kts | 283° |
| 2026-04-26 11:40 | 45.66263 | 9.73499 | 975 ft | 138 kts | 283° |
| 2026-04-26 11:41 | 45.66510 | 9.72171 | 793 ft | 138 kts | 283° |
| 2026-04-26 11:42 | 45.66778 | 9.69835 | 791 ft | 0 kts | 204° |
| 2026-04-26 11:43 | 45.66777 | 9.69835 | 791 ft | 1 kts | 204° |
| 2026-04-26 11:43 | 45.66716 | 9.69811 | 791 ft | 13 kts | 195° |
| 2026-04-26 11:43 | 45.66683 | 9.69797 | 791 ft | 1 kts | 197° |
| 2026-04-26 11:43 | 45.66677 | 9.69794 | 791 ft | 1 kts | 195° |
| 2026-04-26 11:44 | 45.66675 | 9.69794 | 791 ft | 0 kts | 195° |
| 2026-04-26 11:44 | 45.66673 | 9.69793 | 791 ft | 1 kts | 195° |